CheckWX is a tool to help pilots better visualize weather data.  It is not intended as a substitute for an official pre-flight weather briefing.

09:33:24 UTC

KMUT METAR
Muscatine Municipal Airport
Muscatine, Iowa, USA
Current

18 mins ago

KMUT 290915Z AUTO 6SM BR M05/M07 A3018 RMK AO2
Observed
Jan-29 @ 09:15 UTC
Visibility
6 SM
Conditions
Mist
Temperature
-5°C / 23°F
Dewpoint
-7°C / 19°F
Humidity
86%
Altimeter
30.18" Hg
Pressure
1022.02 hPa
Previous

38 mins ago

KMUT 290855Z AUTO 00000KT 6SM BR OVC011 M05/M07 A3019 RMK AO2
Observed
Jan-29 @ 08:55 UTC
Visibility
6 SM
Flight Rules
MVFR
Conditions
Mist
Cloud Levels
  • Overcast at 1,100' AGL
Temperature
-5°C / 23°F
Dewpoint
-7°C / 19°F
Humidity
86%
Altimeter
30.19" Hg
Pressure
1022.32 hPa
Previous

58 mins ago

KMUT 290835Z AUTO 00000KT 7SM OVC011 M05/M07 A3019 RMK AO2
Observed
Jan-29 @ 08:35 UTC
Visibility
7 SM
Flight Rules
MVFR
Cloud Levels
  • Overcast at 1,100' AGL
Temperature
-5°C / 23°F
Dewpoint
-7°C / 19°F
Humidity
86%
Altimeter
30.19" Hg
Pressure
1022.32 hPa